Time;durP1;ratioP1;P1;durP2;ratioP2;P2;SDS_P1;SDS_P2;PMS_P1;PMS_P2;Temp;Humidity;BMP_temperature;BMP_pressure;BME280_temperature;BME280_humidity;BME280_pressure;Samples;Min_cycle;Max_cycle;Signal;HPM_P1;HPM_P2
2023/08/15 00:09:01;;;;;;;2.97;1.17;;;;;;;;;;21152057;28;20223;-73
2023/08/15 00:19:03;;;;;;;1.83;1.33;;;;;;;;;;21143271;28;20212;-73
2023/08/15 00:29:05;;;;;;;2.25;1.40;;;;;;;;;;21149558;28;20226;-73
2023/08/15 00:39:07;;;;;;;3.20;1.40;;;;;;;;;;21058510;28;20232;-73
2023/08/15 00:49:09;;;;;;;1.45;1.00;;;;;;;;;;21115145;28;20225;-73
2023/08/15 00:59:10;;;;;;;1.88;1.17;;;;;;;;;;21136228;28;20222;-73
2023/08/15 01:09:12;;;;;;;2.45;1.58;;;;;;;;;;21161620;28;20280;-74
2023/08/15 01:19:24;;;;;;;2.03;1.35;;;;;;;;;;21112081;28;20577;-73
2023/08/15 01:29:26;;;;;;;2.65;1.70;;;;;;;;;;21162809;28;20225;-72
2023/08/15 01:39:29;;;;;;;2.40;1.45;;;24.50;99.90;;;;;;21125271;28;20273;-72
2023/08/15 01:49:31;;;;;;;2.85;1.52;;;;;;;;;;21116857;28;20266;-72
2023/08/15 01:59:32;;;;;;;3.28;1.70;;;;;;;;;;21115555;28;20212;-73
2023/08/15 02:09:34;;;;;;;2.67;1.50;;;;;;;;;;21095215;28;20573;-73
2023/08/15 02:19:36;;;;;;;2.22;1.20;;;;;;;;;;21140144;28;20212;-72
2023/08/15 02:29:39;;;;;;;4.13;1.48;;;;;;;;;;21139645;28;20272;-72
2023/08/15 02:39:41;;;;;;;2.03;1.40;;;;;;;;;;21138210;28;20676;-72
2023/08/15 02:49:42;;;;;;;1.98;1.40;;;;;;;;;;21130642;28;20225;-72
2023/08/15 02:59:44;;;;;;;2.22;1.48;;;;;;;;;;21136907;28;20203;-72
2023/08/15 03:09:46;;;;;;;2.15;1.67;;;;;;;;;;21119532;28;20244;-72
2023/08/15 03:19:48;;;;;;;1.95;1.17;;;;;;;;;;21153737;28;20221;-72
2023/08/15 03:29:50;;;;;;;2.40;1.50;;;;;;;;;;21119166;28;20584;-72
2023/08/15 03:39:52;;;;;;;1.40;1.25;;;;;;;;;;21118474;28;20270;-72
2023/08/15 03:49:53;;;;;;;2.53;1.77;;;;;;;;;;21095563;28;20275;-72
2023/08/15 03:59:55;;;;;;;2.80;2.35;;;;;;;;;;21089548;28;20209;-72
2023/08/15 04:09:57;;;;;;;3.05;2.05;;;;;;;;;;21065674;28;20294;-72
2023/08/15 04:19:59;;;;;;;4.40;1.67;;;;;;;;;;21063676;28;20261;-72
2023/08/15 04:30:01;;;;;;;2.22;1.60;;;;;;;;;;21104785;28;20229;-71
2023/08/15 04:40:03;;;;;;;2.90;0.98;;;;;;;;;;21120695;28;20220;-75
2023/08/15 04:50:08;;;;;;;1.75;1.00;;;24.20;99.90;;;;;;21059849;28;20234;-72
2023/08/15 05:00:11;;;;;;;2.28;1.00;;;;;;;;;;21048817;28;20216;-73
2023/08/15 05:10:13;;;;;;;1.42;0.80;;;24.10;99.90;;;;;;21138928;28;20250;-74
2023/08/15 05:20:18;;;;;;;1.83;0.75;;;;;;;;;;21145613;28;20204;-75
2023/08/15 05:30:20;;;;;;;2.70;0.85;;;;;;;;;;21053767;28;20286;-75
2023/08/15 05:40:22;;;;;;;1.00;0.70;;;;;;;;;;21103354;28;20197;-75
2023/08/15 05:50:24;;;;;;;0.98;0.70;;;;;;;;;;21105383;28;20279;-75
2023/08/15 06:00:26;;;;;;;2.65;1.02;;;;;;;;;;21160004;28;20198;-70
2023/08/15 06:10:28;;;;;;;1.17;0.75;;;;;;;;;;21103526;28;20268;-70
2023/08/15 06:20:31;;;;;;;2.22;0.88;;;;;;;;;;21045460;28;20242;-70
2023/08/15 06:30:32;;;;;;;3.15;0.73;;;;;;;;;;21050476;28;20224;-71
2023/08/15 06:40:35;;;;;;;1.00;0.50;;;;;;;;;;21074895;28;20761;-70
2023/08/15 06:50:36;;;;;;;1.35;0.73;;;;;;;;;;21037732;28;20276;-70
2023/08/15 07:00:38;;;;;;;2.83;0.88;;;;;;;;;;21082449;28;20609;-71
2023/08/15 07:10:39;;;;;;;2.38;0.80;;;25.30;99.90;;;;;;21154102;28;20218;-71
2023/08/15 07:20:41;;;;;;;1.27;0.60;;;;;;;;;;21136262;28;20207;-71
2023/08/15 07:30:45;;;;;;;1.10;0.65;;;;;;;;;;21152841;28;20230;-71
2023/08/15 07:40:49;;;;;;;0.90;0.63;;;;;;;;;;21099518;28;20621;-71
2023/08/15 07:50:54;;;;;;;3.10;0.88;;;;;;;;;;21067320;28;20277;-71
2023/08/15 08:00:56;;;;;;;0.75;0.60;;;;;;;;;;21086960;28;20215;-71
2023/08/15 08:10:57;;;;;;;2.40;0.73;;;;;;;;;;21052264;28;20280;-71
2023/08/15 08:21:01;;;;;;;1.73;0.82;;;;;;;;;;21030421;28;20264;-71
2023/08/15 08:31:03;;;;;;;2.08;0.60;;;;;;;;;;21053845;28;20239;-70
2023/08/15 08:41:05;;;;;;;2.55;0.80;;;;;;;;;;21077179;28;20243;-71
2023/08/15 08:51:08;;;;;;;2.58;1.00;;;;;;;;;;21110390;28;20227;-75
2023/08/15 09:01:12;;;;;;;1.95;0.60;;;26.90;99.90;;;;;;21158184;28;20254;-73
2023/08/15 09:11:14;;;;;;;2.25;0.80;;;;;;;;;;21069643;28;20618;-70
2023/08/15 09:21:16;;;;;;;1.10;0.73;;;;;;;;;;21040359;28;20263;-69
2023/08/15 09:31:18;;;;;;;3.83;0.90;;;27.50;99.90;;;;;;21058666;28;20489;-71
2023/08/15 09:41:24;;;;;;;1.50;1.10;;;27.30;99.90;;;;;;21109812;28;20331;-71
2023/08/15 09:51:26;;;;;;;0.85;0.63;;;;;;;;;;21139304;28;20221;-71
2023/08/15 10:01:30;;;;;;;2.08;1.35;;;;;;;;;;21152082;28;20605;-71
2023/08/15 10:11:35;;;;;;;1.00;0.82;;;27.90;99.90;;;;;;21150434;28;20218;-71
2023/08/15 10:21:48;;;;;;;1.00;0.73;;;;;;;;;;21149594;28;20217;-71
2023/08/15 10:31:58;;;;;;;3.15;1.17;;;;;;;;;;21147064;28;20217;-71
2023/08/15 10:42:00;;;;;;;1.65;1.10;;;;;;;;;;21131211;22;20239;-75
2023/08/15 10:52:02;;;;;;;1.33;0.90;;;;;;;;;;21085711;27;20267;-75
2023/08/15 11:02:04;;;;;;;1.38;1.00;;;;;;;;;;21030321;28;20814;-74
2023/08/15 11:12:09;;;;;;;2.15;1.00;;;;;;;;;;21044161;28;20633;-74
2023/08/15 11:22:11;;;;;;;2.25;0.90;;;;;;;;;;21029103;28;20219;-77
2023/08/15 11:32:13;;;;;;;1.80;0.98;;;;;;;;;;21052432;28;20265;-76
2023/08/15 11:42:15;;;;;;;1.30;0.73;;;;;;;;;;21071646;28;20249;-79
2023/08/15 11:52:18;;;;;;;1.58;0.80;;;;;;;;;;21029525;28;20254;-75
2023/08/15 12:02:20;;;;;;;0.60;0.50;;;;;;;;;;21059824;28;20596;-77
2023/08/15 12:12:24;;;;;;;2.10;0.60;;;;;;;;;;21033204;28;20227;-76
2023/08/15 12:22:26;;;;;;;1.60;0.75;;;;;;;;;;21068471;28;20215;-77
2023/08/15 12:32:28;;;;;;;0.70;0.50;;;;;;;;;;21060213;28;20267;-76
2023/08/15 12:42:29;;;;;;;0.35;0.30;;;;;;;;;;21052156;28;20779;-77
2023/08/15 12:52:34;;;;;;;1.48;0.50;;;;;;;;;;21066287;28;20227;-77
2023/08/15 13:02:35;;;;;;;0.68;0.40;;;30.10;99.90;;;;;;21045543;28;20210;-77
2023/08/15 13:12:37;;;;;;;0.40;0.32;;;;;;;;;;21069737;28;20219;-73
2023/08/15 13:22:39;;;;;;;0.85;0.40;;;;;;;;;;21067392;28;20207;-74
2023/08/15 13:32:41;;;;;;;0.93;0.40;;;;;;;;;;21018511;28;20228;-73
2023/08/15 13:42:42;;;;;;;0.35;0.30;;;;;;;;;;21067575;28;20288;-72
2023/08/15 13:52:44;;;;;;;0.52;0.38;;;;;;;;;;21071352;28;20594;-72
2023/08/15 14:02:46;;;;;;;0.50;0.30;;;;;;;;;;21052251;28;20222;-72
2023/08/15 14:12:49;;;;;;;0.32;0.30;;;;;;;;;;21069169;28;20689;-72
2023/08/15 14:22:51;;;;;;;0.85;0.45;;;;;;;;;;21058920;28;20558;-72
2023/08/15 14:32:53;;;;;;;0.52;0.47;;;;;;;;;;21038319;28;20223;-72
2023/08/15 14:42:55;;;;;;;1.00;0.40;;;;;;;;;;21031207;28;20702;-72
2023/08/15 14:52:59;;;;;;;0.52;0.30;;;29.40;99.90;;;;;;21042228;28;20235;-72
2023/08/15 15:03:01;;;;;;;0.32;0.30;;;;;;;;;;21034026;28;20547;-72
2023/08/15 15:13:03;;;;;;;0.57;0.30;;;;;;;;;;21031143;28;20272;-72
2023/08/15 15:23:04;;;;;;;0.30;0.25;;;;;;;;;;21029606;28;20212;-72
2023/08/15 15:33:06;;;;;;;0.30;0.28;;;;;;;;;;21047056;28;20224;-72
2023/08/15 15:43:08;;;;;;;1.95;0.50;;;;;;;;;;21056161;28;20240;-73
2023/08/15 15:53:09;;;;;;;0.47;0.38;;;;;;;;;;21063663;28;20208;-73
2023/08/15 16:03:11;;;;;;;0.30;0.30;;;;;;;;;;21056135;28;20263;-72
2023/08/15 16:13:13;;;;;;;0.52;0.30;;;;;;;;;;21054555;28;20765;-73
2023/08/15 16:23:15;;;;;;;0.65;0.40;;;;;;;;;;21066210;28;20226;-73
2023/08/15 16:33:17;;;;;;;0.40;0.30;;;;;;;;;;21061193;28;20219;-72
2023/08/15 16:43:20;;;;;;;0.75;0.50;;;;;;;;;;21066431;28;20791;-72
2023/08/15 16:53:21;;;;;;;1.52;0.30;;;;;;;;;;21020678;28;20229;-73
2023/08/15 17:03:23;;;;;;;1.60;0.30;;;;;;;;;;21044367;22;20231;-69
2023/08/15 17:13:25;;;;;;;0.55;0.35;;;;;;;;;;21030855;28;20224;-69
2023/08/15 17:23:26;;;;;;;0.32;0.30;;;;;;;;;;21019608;28;20240;-69
2023/08/15 17:33:28;;;;;;;1.77;0.40;;;;;;;;;;21024142;28;20255;-70
2023/08/15 17:43:31;;;;;;;0.55;0.40;;;;;;;;;;21053509;28;20602;-70
2023/08/15 17:53:32;;;;;;;2.45;0.50;;;;;;;;;;21071097;28;20289;-70
2023/08/15 18:03:34;;;;;;;1.63;0.32;;;;;;;;;;20991144;28;20785;-70
2023/08/15 18:13:36;;;;;;;0.88;0.40;;;;;;;;;;21036307;28;20652;-70
2023/08/15 18:23:38;;;;;;;0.47;0.30;;;;;;;;;;21067338;28;20769;-70
2023/08/15 18:33:40;;;;;;;1.10;0.50;;;;;;;;;;21066293;28;20226;-70
2023/08/15 18:43:42;;;;;;;1.92;0.60;;;;;;;;;;21062191;28;20216;-70
2023/08/15 18:53:43;;;;;;;1.35;0.50;;;;;;;;;;21046960;28;20300;-70
2023/08/15 19:03:45;;;;;;;0.47;0.38;;;;;;;;;;21056640;28;20280;-70
2023/08/15 19:13:47;;;;;;;0.65;0.40;;;;;;;;;;21000397;28;20215;-70
2023/08/15 19:23:49;;;;;;;0.95;0.65;;;;;;;;;;21044932;28;20231;-70
2023/08/15 19:33:51;;;;;;;1.02;0.65;;;;;;;;;;20976152;28;20215;-70
2023/08/15 19:43:58;;;;;;;1.05;0.60;;;;;;;;;;21029667;28;20230;-70
2023/08/15 19:53:59;;;;;;;1.27;0.70;;;;;;;;;;21051869;28;20250;-70
2023/08/15 20:04:01;;;;;;;0.73;0.52;;;;;;;;;;21055982;28;20246;-70
2023/08/15 20:14:04;;;;;;;0.90;0.70;;;;;;;;;;21053480;28;20258;-70
2023/08/15 20:24:06;;;;;;;2.15;1.00;;;;;;;;;;21048427;28;20230;-70
2023/08/15 20:34:08;;;;;;;1.30;0.85;;;;;;;;;;21061385;28;20215;-70
2023/08/15 20:44:10;;;;;;;2.65;0.80;;;;;;;;;;21067620;28;20264;-70
2023/08/15 20:54:12;;;;;;;1.58;0.80;;;;;;;;;;21064925;28;20771;-70
2023/08/15 21:04:13;;;;;;;1.33;0.70;;;;;;;;;;21063677;28;20777;-70
2023/08/15 21:14:15;;;;;;;1.48;0.70;;;;;;;;;;21063489;28;21029;-71
2023/08/15 21:24:17;;;;;;;1.10;0.50;;;;;;;;;;21062974;28;20750;-70
2023/08/15 21:34:19;;;;;;;0.90;0.60;;;;;;;;;;21063072;28;20606;-70
2023/08/15 21:44:21;;;;;;;0.65;0.50;;;;;;;;;;21064647;28;20577;-70
2023/08/15 21:54:23;;;;;;;0.80;0.60;;;;;;;;;;21068040;28;20212;-69
2023/08/15 22:04:24;;;;;;;0.80;0.50;;;;;;;;;;21064521;28;20220;-69
2023/08/15 22:14:26;;;;;;;0.88;0.68;;;;;;;;;;21066517;28;20508;-69
2023/08/15 22:24:28;;;;;;;0.77;0.65;;;;;;;;;;21066434;28;20670;-69
2023/08/15 22:34:30;;;;;;;1.30;0.75;;;;;;;;;;21062917;28;20243;-69
2023/08/15 22:44:31;;;;;;;0.93;0.63;;;;;;;;;;21065946;28;20219;-69
2023/08/15 22:54:34;;;;;;;1.88;0.90;;;;;;;;;;21026699;28;20293;-69
2023/08/15 23:04:35;;;;;;;1.20;0.80;;;;;;;;;;21064456;28;20299;-71
2023/08/15 23:14:37;;;;;;;1.33;0.95;;;;;;;;;;21063766;28;20278;-69
2023/08/15 23:24:39;;;;;;;1.42;0.98;;;;;;;;;;21064572;28;20210;-70
2023/08/15 23:34:40;;;;;;;1.55;1.00;;;;;;;;;;21063454;28;20568;-69
2023/08/15 23:44:42;;;;;;;1.30;1.00;;;;;;;;;;21072165;28;20276;-72
2023/08/15 23:54:44;;;;;;;1.98;0.70;;;;;;;;;;21058689;28;20280;-69
